• Join FlightAware (Why Join?)
  • Login
  • US Flag 
06:20PM EDT


 

Airport Tracker/Info


-or-


 

Live Flight TrackerFlight Track Log ✈ CTA400 ✈ 13-Jun-2013 ✈ KLBB - KADS

Flight Track Log - Related Links

Times and Time Zones

All times are in EDT time to prevent confusion due to time zone crossing. See the CTA400 flight status page for this flight to view local times or setup timezone preferences in your user account.

Time Position Orientation Groundspeed Altitude Reporting Facility
EDT Latitude Longitude Course Direction KTS MPH feet Rate Location/Type
07:08PM 33.6586 -101.7856 92° East 104 120 4,200  Level Fort Worth Center
07:09PM 33.6578 -101.7481 92° East 120 138 5,400 1,140 Climbing Fort Worth Center
07:10PM 33.6531 -101.7028 97° East 115 132 6,700 1,020 Climbing Fort Worth Center
07:11PM 33.6503 -101.6653 95° East 116 133 7,600 960 Climbing Fort Worth Center
07:12PM 33.6517 -101.6228 88° East 119 137 8,700 900 Climbing Fort Worth Center
07:13PM 33.6489 -101.5828 95° East 125 144 9,500 480 Climbing Fort Worth Center
07:14PM 33.6461 -101.5378 94° East 134 154 9,700 60 Climbing Fort Worth Center
07:15PM 33.6397 -101.4825 98° East 171 197 9,700 -60 Level Fort Worth Center
07:16PM 33.6375 -101.4203 92° East 177 204 9,600  Descending Fort Worth Center
07:17PM 33.6328 -101.3750 97° East 195 224 9,700  Climbing Fort Worth Center
07:18PM 33.6283 -101.3100 95° East 190 219 9,600  Descending Fort Worth Center
07:19PM 33.6239 -101.2575 96° East 180 207 9,700  Climbing Fort Worth Center
07:20PM 33.6153 -101.1922 99° East 180 207 9,600 -60 Descending Fort Worth Center
07:21PM 33.6086 -101.1394 99° East 180 207 9,600  Level Fort Worth Center
07:22PM 33.5958 -101.0792 104° East 180 207 9,700  Climbing Fort Worth Center
07:23PM 33.5933 -101.0242 93° East 180 207 9,600  Descending Fort Worth Center
07:24PM 33.5867 -100.9592 97° East 180 207 9,700  Climbing Fort Worth Center
07:25PM 33.5864 -100.9017 90° East 180 207 9,700 -60 Level Fort Worth Center
07:26PM 33.5797 -100.8392 97° East 180 207 9,600 -120 Descending Fort Worth Center
07:27PM 33.5728 -100.7842 99° East 180 207 9,500  Descending Fort Worth Center
07:28PM 33.5619 -100.7189 101° East 180 207 9,600 60 Climbing Fort Worth Center
07:29PM 33.5531 -100.6661 101° East 180 207 9,700 60 Climbing Fort Worth Center
07:30PM 33.5439 -100.6083 101° East 180 207 9,800 -60 Climbing Fort Worth Center
07:31PM 33.5372 -100.5483 98° East 180 207 9,600 -180 Descending Fort Worth Center
07:32PM 33.5261 -100.4908 103° East 180 207 9,500 -60 Descending Fort Worth Center
07:33PM 33.5172 -100.4306 100° East 180 207 9,500  Level Fort Worth Center
07:34PM 33.5122 -100.3706 96° East 180 207 9,500  Level Fort Worth Center
07:35PM 33.5031 -100.3131 101° East 180 207 9,600 60 Climbing Fort Worth Center
07:36PM 33.4983 -100.2531 95° East 180 207 9,700  Climbing Fort Worth Center
07:37PM 33.4892 -100.1931 100° East 180 207 9,600 -120 Descending Fort Worth Center
07:38PM 33.4800 -100.1331 100° East 180 207 9,500  Descending Fort Worth Center
07:39PM 33.4750 -100.0756 96° East 180 207 9,600  Climbing Fort Worth Center
07:40PM 33.4681 -100.0106 97° East 180 207 9,500 -60 Descending Fort Worth Center
07:41PM 33.4631 -99.9533 96° East 180 207 9,500  Level Fort Worth Center
07:42PM 33.4558 -99.8908 98° East 180 207 9,500  Level Fort Worth Center
07:43PM 33.4528 -99.8308 93° East 180 207 9,500  Level Fort Worth Center
07:44PM 33.4478 -99.7736 96° East 180 207 9,600  Climbing Fort Worth Center
07:45PM 33.4406 -99.7136 98° East 180 207 9,600 -60 Level Fort Worth Center
07:46PM 33.4375 -99.6539 93° East 180 207 9,500  Descending Fort Worth Center
07:47PM 33.4322 -99.5914 96° East 180 207 9,600  Climbing Fort Worth Center
07:48PM 33.4267 -99.5464 98° East 180 207 9,500 -60 Descending Fort Worth Center
07:49PM 33.4175 -99.4742 99° East 180 207 9,500  Level Fort Worth Center
07:50PM 33.4122 -99.4142 96° East 180 207 9,500  Level Fort Worth Center
07:51PM 33.4069 -99.3544 96° East 180 207 9,500  Level Fort Worth Center
07:52PM 33.4017 -99.2944 96° East 180 207 9,500 -60 Level Fort Worth Center
07:53PM 33.3983 -99.2397 94° East 175 201 9,400 -60 Descending Fort Worth Center
07:54PM 33.3906 -99.1825 99° East 175 201 9,400  Level Fort Worth Center
07:55PM 33.3831 -99.1225 98° East 180 207 9,500 60 Climbing Fort Worth Center
07:56PM 33.3756 -99.0653 99° East 180 207 9,600  Climbing Fort Worth Center
07:57PM 33.3700 -99.0078 97° East 180 207 9,600  Level Fort Worth Center
07:58PM 33.3644 -98.9481 96° East 180 207 9,700  Climbing Fort Worth Center
08:00PM 33.4064 -98.9052 23° Northeast  Level FlightAware Approximate
08:03PM 33.3281 -98.6564 26° Northeast 180 207 9,600  Level Fort Worth Center
08:04PM 33.3225 -98.6017 97° East 180 207 9,600  Level Fort Worth Center
08:05PM 33.3167 -98.5444 97° East 180 207 9,600 -60 Level Fort Worth Center
08:06PM 33.3089 -98.4772 98° East 180 207 9,500  Descending Fort Worth Center
08:07PM 33.7564 -98.7177 26° Northeast  Level FlightAware Approximate
08:07PM 33.3031 -98.4200 97° East 180 207 9,600  Level Fort Worth Center
08:08PM 33.8055 -98.6887 26° Northeast  Level FlightAware Approximate
08:08PM 33.2931 -98.3603 101° East 180 207 9,600  Level Fort Worth Center
08:09PM 33.2811 -98.3081 105° East 180 207 9,600  Level Fort Worth Center
08:10PM 33.2711 -98.2408 100° East 180 207 9,600  Level Fort Worth Center
08:11PM 33.2631 -98.1886 100° East 180 207 9,600 -60 Level Fort Worth Center
08:12PM 33.2508 -98.1239 103° East 180 207 9,500 -120 Descending Fort Worth Center
08:13PM 33.2450 -98.0692 97° East 185 213 9,400 -420 Descending Fort Worth Center
08:14PM 33.2347 -97.9994 100° East 185 213 8,700 -600 Descending Fort Worth Center
08:15PM 33.2267 -97.9447 100° East 185 213 8,300 -480 Descending Fort Worth Center
08:16PM 33.2167 -97.8778 100° East 185 213 7,800 -480 Descending Fort Worth Center
08:17PM 33.2064 -97.8231 103° East 185 213 7,400 -540 Descending Fort Worth Center
08:18PM 33.1961 -97.7561 100° East 185 213 6,800 -600 Descending Fort Worth Center
08:19PM 33.1919 -97.6989 95° East 185 213 6,300 -600 Descending Fort Worth Center
08:20PM 33.1881 -97.6294 94° East 185 213 5,600 -780 Descending Fort Worth Center
08:21PM 33.1833 -97.5667 95° East 190 219 4,900 -660 Descending Dallas / Fort Worth TRACON
08:22PM 33.1833 -97.5000 90° East 176 203 4,400 -480 Descending Dallas / Fort Worth TRACON
08:23PM 33.1667 -97.4500 112° Southeast 174 200 4,000 -420 Descending Dallas / Fort Worth TRACON
08:24PM 33.1500 -97.4000 112° Southeast 177 204 3,600 -420 Descending Dallas / Fort Worth TRACON
08:25PM 33.1500 -97.3333 90° East 176 203 3,200 -480 Descending Dallas / Fort Worth TRACON
08:26PM 33.1333 -97.2833 112° Southeast 174 200 2,700 -480 Descending Dallas / Fort Worth TRACON
08:27PM 33.1167 -97.2333 112° Southeast 172 198 2,300 -180 Descending Dallas / Fort Worth TRACON
08:28PM 33.1086 -97.1853 101° East 159 183 2,400 -120 Climbing Fort Worth Center
08:29PM 33.1000 -97.1167 99° East 177 204 2,100 -240 Descending Dallas / Fort Worth TRACON
08:30PM 33.1000 -97.0667 90° East 176 203 2,000  Descending Dallas / Fort Worth TRACON
08:32PM 33.0345 -96.9542 125° Southeast  Level FlightAware Approximate
08:32PM 33.1333 -96.9500 125° Southeast 179 206 2,100  Level Dallas / Fort Worth TRACON
08:33PM 33.1333 -96.9167 90° East 169 194 2,100  Level Dallas / Fort Worth TRACON
08:34PM 33.1000 -96.8833 140° Southeast 167 192 2,100 -60 Level Dallas / Fort Worth TRACON
08:35PM 33.0500 -96.8667 164° South 160 184 2,000 -300 Descending Dallas / Fort Worth TRACON
08:36PM 33.0167 -96.8500 157° South 128 147 1,600 -600 Descending Dallas / Fort Worth TRACON
08:37PM 32.9833 -96.8333 157° South 114 131 900 -720 Descending Dallas / Fort Worth TRACON
08:39PM 32.9667 -96.8333 121° Southeast  Level FlightAware Approximate
08:46PM 32.9686 -96.8364 121° Southeast  Level Estimated